Time;durP1;ratioP1;P1;durP2;ratioP2;P2;SDS_P1;SDS_P2;PMS_P1;PMS_P2;Temp;Humidity;BMP_temperature;BMP_pressure;BME280_temperature;BME280_humidity;BME280_pressure;Samples;Min_cycle;Max_cycle;Signal;HPM_P1;HPM_P2
2021/08/16 00:01:23;;;;;;;;;;;;;;;19.96;47.12;100855.94;5115941;28;997;-58
2021/08/16 00:03:48;;;;;;;;;;;;;;;19.61;46.80;100839.44;5116170;28;771;-58
2021/08/16 00:06:14;;;;;;;;;;;;;;;19.39;47.26;100842.75;5116579;28;743;-44
2021/08/16 00:08:39;;;;;;;;;;;;;;;19.64;49.07;100849.09;5115837;28;1288;-53
2021/08/16 00:11:04;;;;;;;;;;;;;;;20.13;50.07;100845.25;5115857;28;823;-47
2021/08/16 00:13:30;;;;;;;;;;;;;;;20.32;52.07;100839.72;5118506;28;1913;-58
2021/08/16 00:15:56;;;;;;;;;;;;;;;20.21;54.00;100842.94;5120334;28;782;-57
2021/08/16 00:18:21;;;;;;;;;;;;;;;20.49;54.48;100841.16;5101419;28;1002;-44
2021/08/16 00:20:47;;;;;;;;;;;;;;;20.72;54.75;100850.50;5120156;28;831;-58
2021/08/16 00:23:12;;;;;;;;;;;;;;;20.58;55.79;100844.06;5119543;28;1166;-46
2021/08/16 00:25:39;;;;;;;;;;;;;;;20.71;55.87;100840.56;5119693;28;835;-54
2021/08/16 00:28:05;;;;;;;;;;;;;;;21.00;55.69;100834.03;5101681;28;1404;-58
2021/08/16 00:30:30;;;;;;;;;;;;;;;21.08;55.77;100832.53;5119870;28;809;-53
2021/08/16 00:32:56;;;;;;;;;;;;;;;21.07;56.04;100845.53;5119046;28;1973;-58
2021/08/16 00:35:21;;;;;;;;;;;;;;;20.94;56.48;100840.75;5119580;28;752;-45
2021/08/16 00:37:47;;;;;;;;;;;;;;;20.99;55.72;100837.94;5119593;28;818;-57
2021/08/16 00:40:13;;;;;;;;;;;;;;;20.77;54.96;100830.25;5119361;28;807;-50
2021/08/16 00:42:38;;;;;;;;;;;;;;;20.43;52.77;100834.88;5101988;28;802;-59
2021/08/16 00:45:04;;;;;;;;;;;;;;;20.29;50.56;100823.75;5119388;28;807;-61
2021/08/16 00:47:30;;;;;;;;;;;;;;;19.96;49.22;100831.94;5119122;28;1021;-61
2021/08/16 00:49:55;;;;;;;;;;;;;;;19.45;48.47;100825.03;5119246;28;814;-60
2021/08/16 00:52:21;;;;;;;;;;;;;;;19.27;47.94;100825.75;5119368;28;802;-47
2021/08/16 00:54:46;;;;;;;;;;;;;;;19.54;47.24;100827.94;5119147;28;1975;-59
2021/08/16 00:57:12;;;;;;;;;;;;;;;19.59;48.37;100825.16;5119372;28;847;-44
2021/08/16 00:59:37;;;;;;;;;;;;;;;19.48;49.45;100832.69;5119075;28;916;-59
2021/08/16 01:02:03;;;;;;;;;;;;;;;19.71;49.26;100833.00;5118494;28;978;-53
2021/08/16 01:04:29;;;;;;;;;;;;;;;19.80;49.65;100819.44;5119332;28;910;-61
2021/08/16 01:06:54;;;;;;;;;;;;;;;19.56;50.23;100813.88;5118907;28;1054;-60
2021/08/16 01:09:19;;;;;;;;;;;;;;;19.67;50.28;100812.66;5118747;28;799;-56
2021/08/16 01:11:46;;;;;;;;;;;;;;;19.70;50.34;100812.06;5119104;28;882;-61
2021/08/16 01:14:12;;;;;;;;;;;;;;;19.78;49.96;100810.59;5118734;28;1913;-45
2021/08/16 01:16:37;;;;;;;;;;;;;;;19.71;50.20;100807.34;5118264;28;958;-60
2021/08/16 01:19:03;;;;;;;;;;;;;;;19.72;50.07;100811.78;5118774;28;819;-45
2021/08/16 01:21:29;;;;;;;;;;;;;;;19.74;50.12;100809.53;5118933;28;767;-46
2021/08/16 01:23:54;;;;;;;;;;;;;;;19.48;50.83;100807.88;5118606;28;1150;-45
2021/08/16 01:26:19;;;;;;;;;;;;;;;19.45;50.84;100805.72;5118036;28;759;-60
2021/08/16 01:28:45;;;;;;;;;;;;;;;19.67;50.29;100813.47;5118512;28;827;-46
2021/08/16 01:31:10;;;;;;;;;;;;;;;19.85;49.62;100804.75;5117962;28;958;-58
2021/08/16 01:33:37;;;;;;;;;;;;;;;19.66;50.18;100803.53;5118531;28;1941;-60
2021/08/16 01:36:02;;;;;;;;;;;;;;;19.82;49.71;100797.88;5118542;28;862;-46
2021/08/16 01:38:28;;;;;;;;;;;;;;;19.59;50.25;100799.50;5118807;28;828;-60
2021/08/16 01:40:54;;;;;;;;;;;;;;;19.58;49.98;100795.91;5117998;28;822;-45
2021/08/16 01:43:19;;;;;;;;;;;;;;;19.39;50.87;100797.78;5118562;28;819;-58
2021/08/16 01:45:45;;;;;;;;;;;;;;;19.80;50.83;100800.13;5118561;28;862;-47
2021/08/16 01:48:13;;;;;;;;;;;;;;;19.78;52.40;100792.09;5117661;28;1016;-57
2021/08/16 01:50:39;;;;;;;;;;;;;;;19.94;53.54;100789.19;5118255;28;813;-50
2021/08/16 01:53:04;;;;;;;;;;;;;;;20.16;54.20;100789.41;5118122;28;1886;-46
2021/08/16 01:55:30;;;;;;;;;;;;;;;20.28;54.96;100793.69;5117733;28;735;-58
2021/08/16 01:57:55;;;;;;;;;;;;;;;20.41;55.66;100803.16;5118384;28;739;-57
2021/08/16 02:00:21;;;;;;;;;;;;;;;20.60;55.81;100797.63;5118088;28;810;-48
2021/08/16 02:02:46;;;;;;;;;;;;;;;20.67;56.01;100792.53;5117479;28;962;-57
2021/08/16 02:05:11;;;;;;;;;;;;;;;20.74;56.46;100792.19;5118048;28;775;-45
2021/08/16 02:07:37;;;;;;;;;;;;;;;21.02;55.92;100798.63;5118034;28;1038;-57
2021/08/16 02:10:03;;;;;;;;;;;;;;;20.87;56.81;100791.41;5117300;28;795;-44
2021/08/16 02:12:28;;;;;;;;;;;;;;;21.01;56.67;100792.28;5118072;28;763;-45
2021/08/16 02:14:53;;;;;;;;;;;;;;;21.25;56.20;100790.47;5117778;28;1968;-46
2021/08/16 02:17:19;;;;;;;;;;;;;;;21.18;56.34;100782.56;5117086;28;970;-58
2021/08/16 02:19:46;;;;;;;;;;;;;;;21.11;56.12;100791.28;5117517;28;866;-59
2021/08/16 02:22:11;;;;;;;;;;;;;;;21.06;54.74;100788.59;5117780;28;536;-59
2021/08/16 02:24:37;;;;;;;;;;;;;;;20.80;53.98;100786.28;5117133;28;1198;-47
2021/08/16 02:27:02;;;;;;;;;;;;;;;20.42;53.40;100783.50;5117991;28;834;-44
2021/08/16 02:29:28;;;;;;;;;;;;;;;20.49;52.15;100786.72;5117715;28;859;-59
2021/08/16 02:31:53;;;;;;;;;;;;;;;20.30;51.50;100792.25;5116237;28;978;-59
2021/08/16 02:34:19;;;;;;;;;;;;;;;20.37;50.79;100794.66;5117574;28;1926;-59
2021/08/16 02:36:44;;;;;;;;;;;;;;;20.18;50.74;100791.88;5116534;28;858;-44
2021/08/16 02:39:09;;;;;;;;;;;;;;;19.91;50.78;100798.03;5117224;28;855;-59
2021/08/16 02:41:36;;;;;;;;;;;;;;;19.92;50.33;100802.44;5117351;28;807;-59
2021/08/16 02:44:02;;;;;;;;;;;;;;;20.08;49.47;100798.38;5117092;28;799;-45
2021/08/16 02:46:27;;;;;;;;;;;;;;;19.70;50.22;100803.78;5116451;28;1017;-57
2021/08/16 02:48:53;;;;;;;;;;;;;;;19.82;49.99;100795.13;5117347;28;839;-44
2021/08/16 02:51:18;;;;;;;;;;;;;;;19.80;49.78;100798.16;5117065;28;871;-47
2021/08/16 02:53:43;;;;;;;;;;;;;;;19.92;51.47;100799.69;5116695;28;1958;-49
2021/08/16 02:56:09;;;;;;;;;;;;;;;20.38;53.35;100806.50;5117180;28;916;-54
2021/08/16 02:58:34;;;;;;;;;;;;;;;20.47;54.92;100799.22;5116876;28;747;-56
2021/08/16 03:01:00;;;;;;;;;;;;;;;20.82;55.29;100800.59;5116568;28;831;-59
2021/08/16 03:03:25;;;;;;;;;;;;;;;20.90;56.20;100801.03;5116901;28;1005;-48
2021/08/16 03:05:51;;;;;;;;;;;;;;;20.87;56.86;100799.69;5098783;28;874;-52
2021/08/16 03:08:16;;;;;;;;;;;;;;;21.09;56.73;100807.31;5116466;28;1212;-57
2021/08/16 03:10:42;;;;;;;;;;;;;;;21.28;56.71;100801.75;5116562;28;823;-47
2021/08/16 03:13:08;;;;;;;;;;;;;;;21.48;55.93;100805.25;5117032;28;1909;-58
2021/08/16 03:15:33;;;;;;;;;;;;;;;21.04;54.67;100807.41;5117080;28;756;-58
2021/08/16 03:18:00;;;;;;;;;;;;;;;20.66;51.80;100804.69;5116445;28;961;-58
2021/08/16 03:20:26;;;;;;;;;;;;;;;20.11;49.07;100811.56;5116652;28;839;-57
2021/08/16 03:22:51;;;;;;;;;;;;;;;19.62;47.19;100809.94;5116085;28;759;-54
2021/08/16 03:25:16;;;;;;;;;;;;;;;19.20;45.67;100814.25;5116755;28;1194;-56
2021/08/16 03:27:42;;;;;;;;;;;;;;;19.21;46.34;100815.88;5116539;28;730;-57
2021/08/16 03:30:08;;;;;;;;;;;;;;;19.68;49.42;100811.53;5116524;28;803;-57
2021/08/16 03:32:33;;;;;;;;;;;;;;;19.95;51.94;100813.72;5116042;28;970;-48
2021/08/16 03:34:59;;;;;;;;;;;;;;;20.17;53.88;100812.31;5116136;28;1972;-57
2021/08/16 03:37:24;;;;;;;;;;;;;;;20.44;54.94;100811.66;5116308;28;771;-56
2021/08/16 03:39:50;;;;;;;;;;;;;;;20.55;56.02;100806.78;5116808;28;775;-58
2021/08/16 03:42:15;;;;;;;;;;;;;;;21.31;54.92;100806.66;5116612;28;802;-56
2021/08/16 03:44:40;;;;;;;;;;;;;;;21.05;56.14;100820.13;5116452;28;807;-62
2021/08/16 03:47:06;;;;;;;;;;;;;;;21.38;55.99;100809.03;5116188;28;1020;-63
2021/08/16 03:49:32;;;;;;;;;;;;;;;21.42;56.35;100812.00;5119994;28;751;-58
2021/08/16 03:51:57;;;;;;;;;;;;;;;21.57;56.54;100808.97;5120560;28;1002;-58
2021/08/16 03:54:23;;;;;;;;;;;;;;;21.19;56.71;100815.44;5115805;28;1976;-58
2021/08/16 03:56:48;;;;;;;;;;;;;;;20.84;54.74;100814.94;5107554;28;1341;-57
2021/08/16 03:59:13;;;;;;;;;;;;;;;20.44;52.32;100825.47;5115211;28;1476;-49
2021/08/16 04:01:39;;;;;;;;;;;;;;;19.75;49.74;100812.00;5116149;28;1229;-52
2021/08/16 04:04:04;;;;;;;;;;;;;;;19.27;47.81;100812.78;5113923;28;1341;-59
2021/08/16 04:06:30;;;;;;;;;;;;;;;19.01;46.28;100814.16;5114584;28;1388;-59
2021/08/16 04:08:55;;;;;;;;;;;;;;;18.90;47.32;100816.16;5107926;28;1478;-59
2021/08/16 04:11:21;;;;;;;;;;;;;;;19.58;49.54;100814.41;5100432;28;1395;-57
2021/08/16 04:13:46;;;;;;;;;;;;;;;19.92;52.08;100824.53;5111116;28;1906;-60
2021/08/16 04:16:11;;;;;;;;;;;;;;;20.09;54.28;100822.09;5108683;28;1439;-59
2021/08/16 04:18:37;;;;;;;;;;;;;;;20.41;55.37;100823.31;5116294;28;1562;-59
2021/08/16 04:21:02;;;;;;;;;;;;;;;20.72;55.66;100825.66;5110006;28;1612;-63
2021/08/16 04:23:28;;;;;;;;;;;;;;;20.88;56.22;100820.69;5111010;28;1353;-63
2021/08/16 04:25:53;;;;;;;;;;;;;;;21.02;56.58;100817.97;5108566;28;1324;-63
2021/08/16 04:28:19;;;;;;;;;;;;;;;21.17;56.85;100820.47;5101266;28;847;-63
2021/08/16 04:30:45;;;;;;;;;;;;;;;21.54;56.12;100815.09;5110023;28;1432;-62
2021/08/16 04:33:11;;;;;;;;;;;;;;;21.56;55.92;100814.81;5109874;28;1913;-62
2021/08/16 04:35:36;;;;;;;;;;;;;;;20.77;55.45;100819.22;5106628;28;1361;-60
2021/08/16 04:38:03;;;;;;;;;;;;;;;20.27;52.70;100825.16;5109781;28;1419;-61
2021/08/16 04:40:28;;;;;;;;;;;;;;;19.89;49.80;100819.59;5112201;28;1438;-61
2021/08/16 04:42:53;;;;;;;;;;;;;;;19.50;47.49;100821.38;5104325;28;1356;-60
2021/08/16 04:45:19;;;;;;;;;;;;;;;18.88;46.63;100816.44;5107585;28;1490;-61
2021/08/16 04:47:45;;;;;;;;;;;;;;;18.90;45.82;100818.91;5111775;28;862;-62
2021/08/16 04:50:11;;;;;;;;;;;;;;;19.32;49.17;100815.50;5119233;28;811;-61
2021/08/16 04:52:36;;;;;;;;;;;;;;;19.98;51.61;100821.41;5118100;28;838;-59
2021/08/16 04:55:02;;;;;;;;;;;;;;;20.11;54.35;100825.38;5118323;28;1905;-59
2021/08/16 04:57:31;;;;;;;;;;;;;;;20.39;55.53;100825.53;5119777;28;775;-59
2021/08/16 04:59:57;;;;;;;;;;;;;;;20.81;55.71;100815.53;5117809;28;790;-59
2021/08/16 05:02:22;;;;;;;;;;;;;;;20.99;56.27;100833.22;5116904;28;1234;-61
2021/08/16 05:04:53;;;;;;;;;;;;;;;20.99;56.98;100830.44;5106737;28;796;-62
2021/08/16 05:07:18;;;;;;;;;;;;;;;21.08;57.44;100836.09;5112168;28;1149;-62
2021/08/16 05:09:43;;;;;;;;;;;;;;;21.47;56.66;100842.34;5098498;28;910;-62
2021/08/16 05:12:09;;;;;;;;;;;;;;;21.41;57.04;100838.84;5098810;28;871;-62
2021/08/16 05:14:34;;;;;;;;;;;;;;;21.56;56.60;100840.53;5079827;28;1983;-61
2021/08/16 05:17:00;;;;;;;;;;;;;;;20.96;55.72;100844.88;5105852;28;962;-63
2021/08/16 05:19:25;;;;;;;;;;;;;;;20.59;53.12;100843.75;5118325;28;832;-62
2021/08/16 05:21:51;;;;;;;;;;;;;;;20.01;50.99;100853.13;5118440;28;747;-59
2021/08/16 05:24:16;;;;;;;;;;;;;;;19.68;48.77;100850.16;5099721;28;1202;-62
2021/08/16 05:26:41;;;;;;;;;;;;;;;19.29;47.32;100848.34;5118843;28;763;-63
2021/08/16 05:29:07;;;;;;;;;;;;;;;19.06;46.88;100845.22;5118279;28;865;-61
2021/08/16 05:31:32;;;;;;;;;;;;;;;19.03;47.36;100851.34;5117272;28;907;-61
2021/08/16 05:33:58;;;;;;;;;;;;;;;19.10;48.60;100854.56;5118437;28;1969;-62
2021/08/16 05:36:23;;;;;;;;;;;;;;;19.44;49.33;100850.94;5118551;28;763;-63
2021/08/16 05:38:48;;;;;;;;;;;;;;;19.71;50.34;100860.59;5118357;28;779;-63
2021/08/16 05:41:14;;;;;;;;;;;;;;;19.79;51.29;100854.47;5118474;28;779;-62
2021/08/16 05:43:39;;;;;;;;;;;;;;;19.75;52.27;100849.81;5117567;28;828;-62
2021/08/16 05:46:05;;;;;;;;;;;;;;;19.91;52.36;100859.59;5111425;28;1427;-62
2021/08/16 05:48:30;;;;;;;;;;;;;;;20.05;52.55;100856.94;5118061;28;950;-63
2021/08/16 05:50:56;;;;;;;;;;;;;;;19.97;52.91;100857.59;5118045;28;874;-62
2021/08/16 05:53:21;;;;;;;;;;;;;;;19.96;53.50;100851.25;5118176;28;1910;-62
2021/08/16 05:55:46;;;;;;;;;;;;;;;20.07;53.35;100857.44;5116995;28;828;-62
2021/08/16 05:58:12;;;;;;;;;;;;;;;20.32;52.80;100864.56;5118262;28;866;-62
2021/08/16 06:00:37;;;;;;;;;;;;;;;20.24;53.42;100859.72;5114763;28;1360;-63
2021/08/16 06:03:03;;;;;;;;;;;;;;;20.45;52.85;100860.25;5106978;28;1194;-62
2021/08/16 06:05:28;;;;;;;;;;;;;;;20.31;53.44;100862.13;5112873;28;783;-63
2021/08/16 06:07:54;;;;;;;;;;;;;;;20.36;53.48;100859.28;5097786;28;1015;-62
2021/08/16 06:10:19;;;;;;;;;;;;;;;20.34;53.74;100856.00;5113348;28;825;-64
2021/08/16 06:12:44;;;;;;;;;;;;;;;20.31;53.91;100865.72;5117441;28;739;-63
2021/08/16 06:15:12;;;;;;;;;;;;;;;20.22;54.05;100859.19;5117478;28;1975;-63
2021/08/16 06:17:40;;;;;;;;;;;;;;;20.20;54.44;100868.88;5117046;28;1002;-63
2021/08/16 06:20:06;;;;;;;;;;;;;;;20.21;54.46;100865.81;5117644;28;854;-62
2021/08/16 06:22:33;;;;;;;;;;;;;;;20.35;54.10;100868.69;5116988;28;866;-63
2021/08/16 06:24:58;;;;;;;;;;;;;;;20.29;54.40;100858.84;5116975;28;965;-61
2021/08/16 06:27:24;;;;;;;;;;;;;;;20.40;54.10;100865.88;5104820;28;727;-62
2021/08/16 06:29:49;;;;;;;;;;;;;;;20.53;53.80;100872.59;5097130;28;771;-63
2021/08/16 06:32:15;;;;;;;;;;;;;;;20.48;53.91;100867.13;5106464;28;951;-62
2021/08/16 06:34:42;;;;;;;;;;;;;;;20.34;54.72;100876.16;5116259;28;1902;-63
2021/08/16 06:37:08;;;;;;;;;;;;;;;20.51;54.20;100872.06;5117275;28;791;-62
2021/08/16 06:39:33;;;;;;;;;;;;;;;20.73;53.53;100868.72;5117219;28;803;-62
2021/08/16 06:41:58;;;;;;;;;;;;;;;20.73;53.67;100874.25;5117089;28;778;-60
2021/08/16 06:44:25;;;;;;;;;;;;;;;20.46;54.51;100875.72;5116944;28;792;-62
2021/08/16 06:46:51;;;;;;;;;;;;;;;20.38;54.74;100873.59;5116104;28;961;-61
2021/08/16 06:49:16;;;;;;;;;;;;;;;20.62;54.09;100878.25;5091589;28;1397;-62
2021/08/16 06:51:41;;;;;;;;;;;;;;;20.59;54.21;100871.38;5082430;28;744;-62
2021/08/16 06:54:07;;;;;;;;;;;;;;;20.61;54.27;100877.44;5115199;28;1913;-63
2021/08/16 06:56:32;;;;;;;;;;;;;;;20.60;54.51;100870.25;5116882;28;735;-63
2021/08/16 06:58:58;;;;;;;;;;;;;;;20.76;54.12;100879.19;5116642;28;877;-60
2021/08/16 07:01:25;;;;;;;;;;;;;;;20.85;53.75;100882.09;5115952;28;852;-61
2021/08/16 07:03:50;;;;;;;;;;;;;;;20.65;54.40;100872.97;5117304;28;799;-61
2021/08/16 07:06:16;;;;;;;;;;;;;;;20.65;54.48;100877.66;5110060;28;1388;-61
2021/08/16 07:08:41;;;;;;;;;;;;;;;20.84;54.34;100878.50;5088413;28;744;-60
2021/08/16 07:11:07;;;;;;;;;;;;;;;20.78;54.37;100881.66;5107014;28;771;-60
2021/08/16 07:13:32;;;;;;;;;;;;;;;20.67;54.76;100886.47;5104374;28;1918;-61
2021/08/16 07:15:58;;;;;;;;;;;;;;;20.75;54.67;100883.06;5116383;28;776;-60
2021/08/16 07:18:23;;;;;;;;;;;;;;;20.98;53.94;100880.50;5116686;28;942;-61
2021/08/16 07:20:48;;;;;;;;;;;;;;;21.01;53.83;100879.91;5116556;28;808;-62
2021/08/16 07:23:14;;;;;;;;;;;;;;;20.94;54.02;100885.00;5116019;28;1186;-61
2021/08/16 07:25:39;;;;;;;;;;;;;;;20.95;54.14;100892.97;5106510;28;1269;-60
2021/08/16 07:28:05;;;;;;;;;;;;;;;21.03;54.01;100888.72;5105522;28;1316;-61
2021/08/16 07:30:30;;;;;;;;;;;;;;;21.11;53.87;100879.75;5082730;28;1420;-60
2021/08/16 07:32:56;;;;;;;;;;;;;;;20.93;54.41;100889.72;5109527;28;1905;-61
2021/08/16 07:35:21;;;;;;;;;;;;;;;20.77;54.61;100888.28;5107722;28;1234;-59
2021/08/16 07:37:47;;;;;;;;;;;;;;;20.91;53.26;100882.84;5102816;28;1258;-56
2021/08/16 07:40:12;;;;;;;;;;;;;;;20.67;52.23;100883.72;5101680;28;1553;-58
2021/08/16 07:42:38;;;;;;;;;;;;;;;20.28;51.29;100884.81;5085088;28;1516;-59
2021/08/16 07:45:04;;;;;;;;;;;;;;;20.06;50.26;100888.91;5105058;28;818;-59
2021/08/16 07:47:29;;;;;;;;;;;;;;;19.85;49.50;100893.03;5102649;28;1281;-60
2021/08/16 07:49:55;;;;;;;;;;;;;;;19.62;48.82;100879.72;5104568;28;838;-59
2021/08/16 07:52:20;;;;;;;;;;;;;;;19.52;48.27;100890.03;5113403;28;880;-59
2021/08/16 07:54:46;;;;;;;;;;;;;;;19.30;47.90;100894.91;5116229;28;1969;-59
2021/08/16 07:57:11;;;;;;;;;;;;;;;19.29;48.48;100893.28;5116184;28;807;-59
2021/08/16 07:59:37;;;;;;;;;;;;;;;19.57;49.33;100890.00;5116184;28;810;-59
2021/08/16 08:02:02;;;;;;;;;;;;;;;19.76;50.17;100890.06;5115442;28;1396;-59
2021/08/16 08:04:28;;;;;;;;;;;;;;;19.79;51.24;100890.34;5103210;28;1435;-59
2021/08/16 08:06:53;;;;;;;;;;;;;;;20.02;52.26;100882.38;5109279;28;1444;-59
2021/08/16 08:09:20;;;;;;;;;;;;;;;20.27;53.80;100889.50;5106165;28;1455;-59
2021/08/16 08:11:46;;;;;;;;;;;;;;;20.54;55.50;100882.53;5106007;28;1501;-58
2021/08/16 08:14:11;;;;;;;;;;;;;;;21.17;55.10;100886.81;5112581;28;1910;-59
2021/08/16 08:16:36;;;;;;;;;;;;;;;;;;5107743;28;1474;-59
2021/08/16 08:19:02;;;;;;;;;;;;;;;21.18;56.38;100882.94;5095588;28;748;-60
2021/08/16 08:21:27;;;;;;;;;;;;;;;20.95;54.52;100886.66;5110371;28;794;-62
2021/08/16 08:23:53;;;;;;;;;;;;;;;20.45;52.28;100885.09;5102616;28;1202;-60
2021/08/16 08:26:18;;;;;;;;;;;;;;;19.82;50.54;100887.00;5115720;28;846;-59
2021/08/16 08:28:43;;;;;;;;;;;;;;;19.42;48.76;100883.50;5109830;28;1267;-59
2021/08/16 08:31:09;;;;;;;;;;;;;;;19.03;47.28;100875.28;5104361;28;1353;-57
2021/08/16 08:33:37;;;;;;;;;;;;;;;18.87;46.12;100869.91;5100901;28;1989;-58
2021/08/16 08:36:03;;;;;;;;;;;;;;;19.21;46.71;100884.78;5108780;28;1326;-59
2021/08/16 08:38:29;;;;;;;;;;;;;;;19.60;51.27;100876.44;5087360;28;1377;-58
2021/08/16 08:40:55;;;;;;;;;;;;;;;20.16;54.75;100879.69;5091095;28;970;-56
2021/08/16 08:43:21;;;;;;;;;;;;;;;20.66;55.97;100873.78;5096758;28;1246;-59
2021/08/16 08:45:46;;;;;;;;;;;;;;;21.07;56.89;100873.19;5084448;28;1409;-58
2021/08/16 08:48:12;;;;;;;;;;;;;;;21.53;56.92;100880.69;5111392;28;1537;-58
2021/08/16 08:50:39;;;;;;;;;;;;;;;21.83;57.06;100878.47;5118285;28;802;-59
2021/08/16 08:53:05;;;;;;;;;;;;;;;21.47;57.79;100878.28;5109515;28;1968;-59
2021/08/16 08:55:30;;;;;;;;;;;;;;;21.19;56.07;100876.25;5111721;28;1499;-60
2021/08/16 08:57:57;;;;;;;;;;;;;;;20.90;53.73;100875.66;5116153;28;851;-59
2021/08/16 09:00:23;;;;;;;;;;;;;;;20.29;51.49;100870.69;5098739;28;863;-57
2021/08/16 09:03:01;;;;;;;;;;;;;;;19.91;49.43;100870.63;5112992;28;959;-59
2021/08/16 09:05:27;;;;;;;;;;;;;;;19.39;47.94;100870.31;5114095;28;1446;-57
2021/08/16 09:07:57;;;;;;;;;;;;;;;18.96;46.95;100872.88;5116012;28;1526;-56
2021/08/16 09:10:24;;;;;;;;;;;;;;;19.14;46.64;100871.38;5115141;28;1336;-58
2021/08/16 09:12:50;;;;;;;;;;;;;;;19.09;47.73;100871.41;5107753;28;1261;-55
2021/08/16 09:15:15;;;;;;;;;;;;;;;19.49;48.78;100858.38;5093735;28;1909;-55
2021/08/16 09:17:41;;;;;;;;;;;;;;;19.49;51.55;100858.38;5110178;28;1353;-56
2021/08/16 09:20:36;;;;;;;;;;;;;;;19.92;52.85;100868.66;5108285;28;1127;-57
2021/08/16 09:23:04;;;;;;;;;;;;;;;20.29;54.35;100854.13;5096076;28;1430;-57
2021/08/16 09:25:34;;;;;;;;;;;;;;;20.57;54.97;100864.53;5098347;28;1392;-56
2021/08/16 09:28:00;;;;;;;;;;;;;;;20.66;55.79;100865.47;5109154;28;1324;-59
2021/08/16 09:30:54;;;;;;;;;;;;;;;20.78;56.22;100868.66;5099047;28;1448;-58
2021/08/16 09:33:20;;;;;;;;;;;;;;;20.95;56.37;100859.00;5101187;28;1988;-57
2021/08/16 09:35:56;;;;;;;;;;;;;;;20.94;57.04;100855.41;5095457;28;1401;-58
2021/08/16 09:38:34;;;;;;;;;;;;;;;20.88;56.94;100853.84;5113086;28;1227;-58
2021/08/16 09:41:00;;;;;;;;;;;;;;;21.07;56.11;100845.53;5104055;28;1459;-57
2021/08/16 09:43:28;;;;;;;;;;;;;;;20.81;56.72;100847.88;5115195;28;1364;-57
2021/08/16 09:45:54;;;;;;;;;;;;;;;21.19;55.27;100853.34;5105752;28;1286;-58
2021/08/16 09:48:20;;;;;;;;;;;;;;;20.87;54.63;100851.38;5091068;28;1291;-59
2021/08/16 09:50:46;;;;;;;;;;;;;;;20.54;52.50;100860.41;5107809;28;1378;-58
2021/08/16 09:53:13;;;;;;;;;;;;;;;19.94;51.19;100856.22;5106808;28;1970;-57
2021/08/16 09:55:42;;;;;;;;;;;;;;;19.59;48.82;100847.22;5110539;28;1179;-57
2021/08/16 09:58:14;;;;;;;;;;;;;;;19.17;47.85;100847.91;5105894;28;1324;-58
2021/08/16 10:00:39;;;;;;;;;;;;;;;19.18;46.27;100835.75;5106180;28;1507;-57
2021/08/16 10:03:06;;;;;;;;;;;;;;;18.97;46.32;100841.44;5092050;28;1262;-58
2021/08/16 10:05:32;;;;;;;;;;;;;;;19.22;49.08;100842.34;5104965;28;1483;-57
2021/08/16 10:07:58;;;;;;;;;;;;;;;19.95;52.86;100848.75;5106098;28;1459;-57
2021/08/16 10:10:24;;;;;;;;;;;;;;;20.20;56.18;100846.81;5091570;28;1381;-58
2021/08/16 10:12:49;;;;;;;;;;;;;;;20.83;56.82;100843.72;5082379;28;1277;-58
2021/08/16 10:15:15;;;;;;;;;;;;;;;21.14;57.78;100834.91;5086046;28;1913;-58
2021/08/16 10:17:40;;;;;;;;;;;;;;;21.48;57.70;100830.97;5096705;28;872;-58
2021/08/16 10:20:06;;;;;;;;;;;;;;;21.41;57.31;100838.03;5116061;28;1515;-58
2021/08/16 10:22:35;;;;;;;;;;;;;;;20.86;55.68;100845.06;5097678;28;756;-57
2021/08/16 10:25:10;;;;;;;;;;;;;;;20.46;53.56;100836.22;5097413;28;1004;-58
2021/08/16 10:27:36;;;;;;;;;;;;;;;20.27;51.28;100834.28;5111981;28;1357;-56
2021/08/16 10:30:08;;;;;;;;;;;;;;;20.05;49.11;100832.09;5104739;28;1191;-57
2021/08/16 10:32:33;;;;;;;;;;;;;;;19.61;48.69;100836.69;5110121;28;1328;-57
2021/08/16 10:35:13;;;;;;;;;;;;;;;19.50;47.38;100832.41;5108656;28;1922;-57
2021/08/16 10:37:42;;;;;;;;;;;;;;;19.07;47.22;100833.09;5099738;28;1243;-58
2021/08/16 10:40:15;;;;;;;;;;;;;;;19.20;48.61;100833.56;5097000;28;1503;-54
2021/08/16 10:42:40;;;;;;;;;;;;;;;19.65;50.25;100839.69;5105231;28;1260;-56
2021/08/16 10:45:07;;;;;;;;;;;;;;;20.14;52.46;100833.06;5105203;28;1333;-58
2021/08/16 10:47:33;;;;;;;;;;;;;;;20.47;55.83;100835.94;5109246;28;890;-58
2021/08/16 10:50:09;;;;;;;;;;;;;;;20.81;57.41;100836.84;5116517;28;832;-56
2021/08/16 10:52:36;;;;;;;;;;;;;;;21.30;57.78;100837.38;5117403;28;792;-56
2021/08/16 10:55:09;;;;;;;;;;;;;;;21.46;57.47;100833.22;5116928;28;1976;-58
2021/08/16 10:57:35;;;;;;;;;;;;;;;20.98;57.02;100837.09;5113961;28;1491;-58
2021/08/16 11:00:00;;;;;;;;;;;;;;;20.77;54.72;100828.31;5107828;28;1396;-59
2021/08/16 11:02:26;;;;;;;;;;;;;;;20.26;53.26;100826.28;5111397;28;1268;-58
2021/08/16 11:04:51;;;;;;;;;;;;;;;20.21;50.86;100821.66;5110072;28;1356;-58
2021/08/16 11:07:23;;;;;;;;;;;;;;;19.70;49.57;100819.50;5097189;28;1007;-59
2021/08/16 11:09:58;;;;;;;;;;;;;;;19.55;48.48;100812.25;5108166;28;1364;-59
2021/08/16 11:12:33;;;;;;;;;;;;;;;19.36;47.51;100821.25;5110331;28;1211;-60
2021/08/16 11:14:58;;;;;;;;;;;;;;;19.27;47.41;100812.78;5103405;28;1909;-58
2021/08/16 11:17:24;;;;;;;;;;;;;;;19.42;49.01;100817.34;5108979;28;1424;-56
2021/08/16 11:19:50;;;;;;;;;;;;;;;19.77;50.54;100811.72;5109480;28;1349;-58
2021/08/16 11:22:15;;;;;;;;;;;;;;;19.94;52.79;100802.97;5097008;28;744;-58
2021/08/16 11:24:42;;;;;;;;;;;;;;;20.16;53.83;100811.50;5110028;28;1198;-58
2021/08/16 11:27:08;;;;;;;;;;;;;;;20.31;55.06;100804.13;5116504;28;827;-58
2021/08/16 11:29:34;;;;;;;;;;;;;;;20.38;56.10;100812.03;5116544;28;759;-58
2021/08/16 11:32:01;;;;;;;;;;;;;;;20.45;57.38;100818.00;5116143;28;927;-59
2021/08/16 11:34:30;;;;;;;;;;;;;;;21.05;56.40;100809.06;5116462;28;1979;-59
2021/08/16 11:36:56;;;;;;;;;;;;;;;20.85;57.31;100804.72;5117101;28;786;-58
2021/08/16 11:39:31;;;;;;;;;;;;;;;20.93;57.02;100809.56;5116427;28;830;-58
2021/08/16 11:41:58;;;;;;;;;;;;;;;20.87;55.52;100801.63;5116061;28;890;-58
2021/08/16 11:44:23;;;;;;;;;;;;;;;20.47;52.71;100802.78;5116650;28;786;-58
2021/08/16 11:46:49;;;;;;;;;;;;;;;20.08;50.95;100794.78;5115928;28;969;-58
2021/08/16 11:49:15;;;;;;;;;;;;;;;19.51;49.49;100789.13;5098633;28;819;-60
2021/08/16 11:51:42;;;;;;;;;;;;;;;19.20;48.33;100786.69;5110985;28;1487;-59
2021/08/16 11:54:10;;;;;;;;;;;;;;;19.05;46.46;100785.72;5109526;28;1974;-60
2021/08/16 11:56:39;;;;;;;;;;;;;;;18.90;47.04;100785.84;5108884;28;1329;-56
2021/08/16 11:59:11;;;;;;;;;;;;;;;19.32;50.68;100781.56;5092101;28;1369;-57
2021/08/16 12:01:38;;;;;;;;;;;;;;;19.96;54.86;100784.19;5104322;28;1480;-59
2021/08/16 12:04:03;;;;;;;;;;;;;;;20.52;56.52;100783.38;5108647;28;1415;-60
2021/08/16 12:06:29;;;;;;;;;;;;;;;20.80;58.16;100783.50;5084427;28;1327;-58
2021/08/16 12:09:02;;;;;;;;;;;;;;;21.41;57.87;100777.97;5097816;28;1523;-58
2021/08/16 12:11:27;;;;;;;;;;;;;;;21.67;58.26;100777.50;5100381;28;1562;-59
2021/08/16 12:13:56;;;;;;;;;;;;;;;21.53;57.63;100769.19;5094139;28;1988;-60
2021/08/16 12:16:27;;;;;;;;;;;;;;;21.00;55.73;100768.50;5093726;28;1452;-59
2021/08/16 12:18:56;;;;;;;;;;;;;;;20.58;53.73;100773.06;5113436;28;768;-59
2021/08/16 12:21:21;;;;;;;;;;;;;;;20.16;51.93;100761.81;5113761;28;1498;-59
2021/08/16 12:23:57;;;;;;;;;;;;;;;20.11;49.95;100764.63;5114543;28;1388;-59
2021/08/16 12:26:29;;;;;;;;;;;;;;;19.61;49.72;100762.22;5107671;28;1488;-59
2021/08/16 12:28:54;;;;;;;;;;;;;;;19.54;48.77;100756.25;5117436;28;1506;-57
2021/08/16 12:31:21;;;;;;;;;;;;;;;19.36;48.03;100754.25;5091291;28;1404;-60
2021/08/16 12:33:58;;;;;;;;;;;;;;;19.18;47.77;100753.91;5109776;28;1906;-61
2021/08/16 12:36:25;;;;;;;;;;;;;;;19.19;47.70;100749.22;5089902;28;1457;-60
2021/08/16 12:38:54;;;;;;;;;;;;;;;19.22;47.93;100743.09;5119891;28;799;-59
2021/08/16 12:41:24;;;;;;;;;;;;;;;19.19;47.40;100749.22;5109566;28;1363;-57
2021/08/16 12:43:50;;;;;;;;;;;;;;;19.03;47.62;100743.84;5115473;28;827;-58
2021/08/16 12:46:25;;;;;;;;;;;;;;;18.92;47.83;100745.88;5110661;28;1392;-58
2021/08/16 12:48:50;;;;;;;;;;;;;;;19.30;49.76;100743.28;5093907;28;1368;-59